sensor_id;sensor_type;location;lat;lon;timestamp;P1;durP1;ratioP1;P2;durP2;ratioP2
65936;SDS011;52707;52.086;5.418;2022-12-18T00:00:47;89.57;;;37.42;;
65936;SDS011;52707;52.086;5.418;2022-12-18T00:03:14;79.82;;;32.67;;
65936;SDS011;52707;52.086;5.418;2022-12-18T00:05:50;83.85;;;35.58;;
65936;SDS011;52707;52.086;5.418;2022-12-18T00:08:16;76.03;;;32.13;;
65936;SDS011;52707;52.086;5.418;2022-12-18T00:10:43;93.82;;;36.25;;
65936;SDS011;52707;52.086;5.418;2022-12-18T00:13:10;83.65;;;32.97;;
65936;SDS011;52707;52.086;5.418;2022-12-18T00:15:37;81.72;;;34.50;;
65936;SDS011;52707;52.086;5.418;2022-12-18T00:18:04;84.88;;;34.33;;
65936;SDS011;52707;52.086;5.418;2022-12-18T00:20:30;79.07;;;34.17;;
65936;SDS011;52707;52.086;5.418;2022-12-18T00:22:56;81.90;;;32.13;;
65936;SDS011;52707;52.086;5.418;2022-12-18T00:25:23;80.82;;;32.67;;
65936;SDS011;52707;52.086;5.418;2022-12-18T00:27:49;82.50;;;33.35;;
65936;SDS011;52707;52.086;5.418;2022-12-18T00:30:15;88.75;;;35.58;;
65936;SDS011;52707;52.086;5.418;2022-12-18T00:32:42;80.88;;;32.65;;
65936;SDS011;52707;52.086;5.418;2022-12-18T00:35:08;84.50;;;34.10;;
65936;SDS011;52707;52.086;5.418;2022-12-18T00:37:34;78.07;;;33.22;;
65936;SDS011;52707;52.086;5.418;2022-12-18T00:40:01;79.75;;;33.28;;
65936;SDS011;52707;52.086;5.418;2022-12-18T00:42:27;94.20;;;34.58;;
65936;SDS011;52707;52.086;5.418;2022-12-18T00:45:12;77.18;;;31.40;;
65936;SDS011;52707;52.086;5.418;2022-12-18T00:47:38;85.90;;;33.63;;
65936;SDS011;52707;52.086;5.418;2022-12-18T00:50:05;83.75;;;33.10;;
65936;SDS011;52707;52.086;5.418;2022-12-18T00:52:31;79.70;;;31.92;;
65936;SDS011;52707;52.086;5.418;2022-12-18T00:54:58;89.95;;;34.03;;
65936;SDS011;52707;52.086;5.418;2022-12-18T00:57:31;77.35;;;30.80;;
65936;SDS011;52707;52.086;5.418;2022-12-18T00:59:57;83.32;;;33.95;;
65936;SDS011;52707;52.086;5.418;2022-12-18T01:02:23;81.38;;;33.45;;
65936;SDS011;52707;52.086;5.418;2022-12-18T01:04:50;79.82;;;32.45;;
65936;SDS011;52707;52.086;5.418;2022-12-18T01:07:16;84.28;;;33.35;;
65936;SDS011;52707;52.086;5.418;2022-12-18T01:09:44;83.57;;;33.70;;
65936;SDS011;52707;52.086;5.418;2022-12-18T01:12:10;75.75;;;33.00;;
65936;SDS011;52707;52.086;5.418;2022-12-18T01:14:36;79.25;;;31.77;;
65936;SDS011;52707;52.086;5.418;2022-12-18T01:17:04;74.82;;;32.05;;
65936;SDS011;52707;52.086;5.418;2022-12-18T01:19:30;82.20;;;33.15;;
65936;SDS011;52707;52.086;5.418;2022-12-18T01:21:57;80.97;;;33.22;;
65936;SDS011;52707;52.086;5.418;2022-12-18T01:24:23;86.15;;;33.75;;
65936;SDS011;52707;52.086;5.418;2022-12-18T01:26:50;73.85;;;31.85;;
65936;SDS011;52707;52.086;5.418;2022-12-18T01:29:16;72.07;;;29.95;;
65936;SDS011;52707;52.086;5.418;2022-12-18T01:31:42;77.32;;;31.60;;
65936;SDS011;52707;52.086;5.418;2022-12-18T01:34:09;71.53;;;30.95;;
65936;SDS011;52707;52.086;5.418;2022-12-18T01:36:36;79.00;;;31.52;;
65936;SDS011;52707;52.086;5.418;2022-12-18T01:39:04;75.43;;;31.63;;
65936;SDS011;52707;52.086;5.418;2022-12-18T01:41:31;81.15;;;31.33;;
65936;SDS011;52707;52.086;5.418;2022-12-18T01:47:00;79.25;;;31.08;;
65936;SDS011;52707;52.086;5.418;2022-12-18T01:49:27;72.05;;;32.03;;
65936;SDS011;52707;52.086;5.418;2022-12-18T01:51:53;69.85;;;30.83;;
65936;SDS011;52707;52.086;5.418;2022-12-18T01:54:19;80.13;;;32.72;;
65936;SDS011;52707;52.086;5.418;2022-12-18T01:56:46;82.85;;;31.52;;
65936;SDS011;52707;52.086;5.418;2022-12-18T01:59:12;73.25;;;30.90;;
65936;SDS011;52707;52.086;5.418;2022-12-18T02:01:39;77.78;;;31.67;;
65936;SDS011;52707;52.086;5.418;2022-12-18T02:07:05;72.00;;;30.48;;
65936;SDS011;52707;52.086;5.418;2022-12-18T02:09:49;73.07;;;31.58;;
65936;SDS011;52707;52.086;5.418;2022-12-18T02:12:18;69.85;;;28.92;;
65936;SDS011;52707;52.086;5.418;2022-12-18T02:17:35;71.55;;;28.20;;
65936;SDS011;52707;52.086;5.418;2022-12-18T02:27:49;66.18;;;29.20;;
65936;SDS011;52707;52.086;5.418;2022-12-18T02:30:16;70.63;;;29.70;;
65936;SDS011;52707;52.086;5.418;2022-12-18T02:32:44;64.38;;;28.70;;
65936;SDS011;52707;52.086;5.418;2022-12-18T02:35:13;63.60;;;27.38;;
65936;SDS011;52707;52.086;5.418;2022-12-18T02:37:41;71.43;;;29.30;;
65936;SDS011;52707;52.086;5.418;2022-12-18T02:40:09;69.43;;;28.13;;
65936;SDS011;52707;52.086;5.418;2022-12-18T02:42:37;75.18;;;28.25;;
65936;SDS011;52707;52.086;5.418;2022-12-18T02:45:03;64.75;;;29.35;;
65936;SDS011;52707;52.086;5.418;2022-12-18T02:47:33;63.85;;;28.10;;
65936;SDS011;52707;52.086;5.418;2022-12-18T02:55:08;73.25;;;26.98;;
65936;SDS011;52707;52.086;5.418;2022-12-18T03:00:28;68.25;;;28.33;;
65936;SDS011;52707;52.086;5.418;2022-12-18T03:05:25;70.82;;;28.02;;
65936;SDS011;52707;52.086;5.418;2022-12-18T03:08:13;68.63;;;28.75;;
65936;SDS011;52707;52.086;5.418;2022-12-18T03:10:45;62.70;;;26.15;;
65936;SDS011;52707;52.086;5.418;2022-12-18T03:13:49;66.70;;;26.70;;
65936;SDS011;52707;52.086;5.418;2022-12-18T03:16:09;64.90;;;28.58;;
65936;SDS011;52707;52.086;5.418;2022-12-18T03:18:42;63.40;;;27.17;;
65936;SDS011;52707;52.086;5.418;2022-12-18T03:21:11;58.40;;;24.23;;
65936;SDS011;52707;52.086;5.418;2022-12-18T03:23:40;66.63;;;28.23;;
65936;SDS011;52707;52.086;5.418;2022-12-18T03:26:10;62.55;;;26.75;;
65936;SDS011;52707;52.086;5.418;2022-12-18T03:28:38;61.05;;;25.75;;
65936;SDS011;52707;52.086;5.418;2022-12-18T03:31:05;64.68;;;27.58;;
65936;SDS011;52707;52.086;5.418;2022-12-18T03:33:46;58.53;;;26.55;;
65936;SDS011;52707;52.086;5.418;2022-12-18T03:36:13;70.85;;;27.25;;
65936;SDS011;52707;52.086;5.418;2022-12-18T03:38:39;59.47;;;26.05;;
65936;SDS011;52707;52.086;5.418;2022-12-18T03:46:33;61.55;;;26.33;;
65936;SDS011;52707;52.086;5.418;2022-12-18T03:49:06;64.53;;;26.00;;
65936;SDS011;52707;52.086;5.418;2022-12-18T03:54:04;52.50;;;24.08;;
65936;SDS011;52707;52.086;5.418;2022-12-18T03:56:33;59.17;;;24.75;;
65936;SDS011;52707;52.086;5.418;2022-12-18T03:59:02;58.67;;;24.65;;
65936;SDS011;52707;52.086;5.418;2022-12-18T04:01:34;55.15;;;25.15;;
65936;SDS011;52707;52.086;5.418;2022-12-18T04:04:01;56.55;;;25.40;;
65936;SDS011;52707;52.086;5.418;2022-12-18T04:06:28;53.17;;;24.60;;
65936;SDS011;52707;52.086;5.418;2022-12-18T04:08:56;52.90;;;24.98;;
65936;SDS011;52707;52.086;5.418;2022-12-18T04:11:23;53.10;;;25.23;;
65936;SDS011;52707;52.086;5.418;2022-12-18T04:13:49;58.13;;;23.58;;
65936;SDS011;52707;52.086;5.418;2022-12-18T04:16:15;55.72;;;23.13;;
65936;SDS011;52707;52.086;5.418;2022-12-18T04:18:42;58.67;;;25.52;;
65936;SDS011;52707;52.086;5.418;2022-12-18T04:21:08;44.92;;;23.63;;
65936;SDS011;52707;52.086;5.418;2022-12-18T04:23:34;55.63;;;24.27;;
65936;SDS011;52707;52.086;5.418;2022-12-18T04:26:01;43.58;;;21.10;;
65936;SDS011;52707;52.086;5.418;2022-12-18T04:28:27;51.63;;;23.40;;
65936;SDS011;52707;52.086;5.418;2022-12-18T04:30:53;57.60;;;22.20;;
65936;SDS011;52707;52.086;5.418;2022-12-18T04:33:19;54.22;;;23.42;;
65936;SDS011;52707;52.086;5.418;2022-12-18T04:35:46;50.15;;;22.83;;
65936;SDS011;52707;52.086;5.418;2022-12-18T04:38:12;48.45;;;23.77;;
65936;SDS011;52707;52.086;5.418;2022-12-18T04:40:38;44.28;;;20.63;;
65936;SDS011;52707;52.086;5.418;2022-12-18T04:43:06;44.00;;;21.48;;
65936;SDS011;52707;52.086;5.418;2022-12-18T04:45:33;41.33;;;21.02;;
65936;SDS011;52707;52.086;5.418;2022-12-18T04:48:00;46.15;;;20.42;;
65936;SDS011;52707;52.086;5.418;2022-12-18T04:50:26;41.92;;;20.73;;
65936;SDS011;52707;52.086;5.418;2022-12-18T04:52:53;42.47;;;20.20;;
65936;SDS011;52707;52.086;5.418;2022-12-18T04:55:19;44.22;;;19.73;;
65936;SDS011;52707;52.086;5.418;2022-12-18T04:57:45;45.75;;;20.13;;
65936;SDS011;52707;52.086;5.418;2022-12-18T05:00:12;42.78;;;19.20;;
65936;SDS011;52707;52.086;5.418;2022-12-18T05:02:38;40.92;;;20.63;;
65936;SDS011;52707;52.086;5.418;2022-12-18T05:05:05;40.50;;;18.85;;
65936;SDS011;52707;52.086;5.418;2022-12-18T05:07:31;44.45;;;20.40;;
65936;SDS011;52707;52.086;5.418;2022-12-18T05:09:58;40.92;;;19.52;;
65936;SDS011;52707;52.086;5.418;2022-12-18T05:12:24;44.65;;;19.48;;
65936;SDS011;52707;52.086;5.418;2022-12-18T05:14:50;43.20;;;19.95;;
65936;SDS011;52707;52.086;5.418;2022-12-18T05:17:16;41.92;;;19.42;;
65936;SDS011;52707;52.086;5.418;2022-12-18T05:19:43;39.67;;;19.60;;
65936;SDS011;52707;52.086;5.418;2022-12-18T05:22:09;37.80;;;19.65;;
65936;SDS011;52707;52.086;5.418;2022-12-18T05:24:36;40.53;;;18.52;;
65936;SDS011;52707;52.086;5.418;2022-12-18T05:27:02;44.90;;;18.63;;
65936;SDS011;52707;52.086;5.418;2022-12-18T05:29:28;36.15;;;17.15;;
65936;SDS011;52707;52.086;5.418;2022-12-18T05:31:54;38.00;;;16.25;;
65936;SDS011;52707;52.086;5.418;2022-12-18T05:34:21;35.47;;;17.40;;
65936;SDS011;52707;52.086;5.418;2022-12-18T05:36:47;32.35;;;17.33;;
65936;SDS011;52707;52.086;5.418;2022-12-18T05:39:14;36.45;;;18.65;;
65936;SDS011;52707;52.086;5.418;2022-12-18T05:41:40;33.88;;;17.67;;
65936;SDS011;52707;52.086;5.418;2022-12-18T05:44:07;36.25;;;17.98;;
65936;SDS011;52707;52.086;5.418;2022-12-18T05:46:33;32.63;;;16.02;;
65936;SDS011;52707;52.086;5.418;2022-12-18T05:49:00;36.83;;;16.80;;
65936;SDS011;52707;52.086;5.418;2022-12-18T05:51:27;38.15;;;16.80;;
65936;SDS011;52707;52.086;5.418;2022-12-18T05:53:53;32.63;;;17.25;;
65936;SDS011;52707;52.086;5.418;2022-12-18T05:56:20;36.03;;;16.38;;
65936;SDS011;52707;52.086;5.418;2022-12-18T05:58:47;33.22;;;16.50;;
65936;SDS011;52707;52.086;5.418;2022-12-18T06:01:17;30.10;;;16.05;;
65936;SDS011;52707;52.086;5.418;2022-12-18T06:03:44;33.38;;;17.92;;
65936;SDS011;52707;52.086;5.418;2022-12-18T06:06:12;28.65;;;16.63;;
65936;SDS011;52707;52.086;5.418;2022-12-18T06:08:39;34.00;;;16.92;;
65936;SDS011;52707;52.086;5.418;2022-12-18T06:11:11;30.65;;;16.08;;
65936;SDS011;52707;52.086;5.418;2022-12-18T06:13:37;33.75;;;16.17;;
65936;SDS011;52707;52.086;5.418;2022-12-18T06:16:05;39.03;;;18.25;;
65936;SDS011;52707;52.086;5.418;2022-12-18T06:18:32;36.17;;;16.70;;
65936;SDS011;52707;52.086;5.418;2022-12-18T06:20:58;33.33;;;16.83;;
65936;SDS011;52707;52.086;5.418;2022-12-18T06:23:25;33.92;;;16.23;;
65936;SDS011;52707;52.086;5.418;2022-12-18T06:25:51;34.65;;;16.95;;
65936;SDS011;52707;52.086;5.418;2022-12-18T06:28:18;45.42;;;20.10;;
65936;SDS011;52707;52.086;5.418;2022-12-18T06:30:46;41.17;;;24.38;;
65936;SDS011;52707;52.086;5.418;2022-12-18T06:33:12;47.38;;;26.13;;
65936;SDS011;52707;52.086;5.418;2022-12-18T06:35:39;45.88;;;22.15;;
65936;SDS011;52707;52.086;5.418;2022-12-18T06:38:05;34.30;;;19.45;;
65936;SDS011;52707;52.086;5.418;2022-12-18T06:40:31;35.85;;;16.67;;
65936;SDS011;52707;52.086;5.418;2022-12-18T06:42:58;33.42;;;17.35;;
65936;SDS011;52707;52.086;5.418;2022-12-18T06:45:24;36.78;;;16.75;;
65936;SDS011;52707;52.086;5.418;2022-12-18T06:47:50;34.20;;;17.33;;
65936;SDS011;52707;52.086;5.418;2022-12-18T06:50:17;31.40;;;16.80;;
65936;SDS011;52707;52.086;5.418;2022-12-18T06:52:43;31.58;;;16.33;;
65936;SDS011;52707;52.086;5.418;2022-12-18T06:55:10;31.67;;;16.25;;
65936;SDS011;52707;52.086;5.418;2022-12-18T06:57:37;30.45;;;15.82;;
65936;SDS011;52707;52.086;5.418;2022-12-18T07:00:04;32.95;;;15.98;;
65936;SDS011;52707;52.086;5.418;2022-12-18T07:02:31;30.08;;;15.25;;
65936;SDS011;52707;52.086;5.418;2022-12-18T07:04:57;32.72;;;17.02;;
65936;SDS011;52707;52.086;5.418;2022-12-18T07:07:23;36.67;;;19.17;;
65936;SDS011;52707;52.086;5.418;2022-12-18T07:09:50;36.20;;;17.02;;
65936;SDS011;52707;52.086;5.418;2022-12-18T07:12:17;33.65;;;18.77;;
65936;SDS011;52707;52.086;5.418;2022-12-18T07:14:43;35.85;;;18.50;;
65936;SDS011;52707;52.086;5.418;2022-12-18T07:17:09;37.03;;;18.77;;
65936;SDS011;52707;52.086;5.418;2022-12-18T07:19:36;35.22;;;16.08;;
65936;SDS011;52707;52.086;5.418;2022-12-18T07:22:02;31.08;;;16.80;;
65936;SDS011;52707;52.086;5.418;2022-12-18T07:24:29;30.30;;;16.05;;
65936;SDS011;52707;52.086;5.418;2022-12-18T07:26:55;32.47;;;16.70;;
65936;SDS011;52707;52.086;5.418;2022-12-18T07:29:22;37.17;;;17.23;;
65936;SDS011;52707;52.086;5.418;2022-12-18T07:31:48;31.58;;;15.98;;
65936;SDS011;52707;52.086;5.418;2022-12-18T07:34:15;34.47;;;17.52;;
65936;SDS011;52707;52.086;5.418;2022-12-18T07:36:41;32.20;;;16.55;;
65936;SDS011;52707;52.086;5.418;2022-12-18T07:39:08;54.60;;;22.70;;
65936;SDS011;52707;52.086;5.418;2022-12-18T07:41:34;41.55;;;21.50;;
65936;SDS011;52707;52.086;5.418;2022-12-18T07:44:00;41.17;;;20.55;;
65936;SDS011;52707;52.086;5.418;2022-12-18T07:46:27;40.72;;;20.30;;
65936;SDS011;52707;52.086;5.418;2022-12-18T07:48:53;37.42;;;18.88;;
65936;SDS011;52707;52.086;5.418;2022-12-18T07:51:19;36.92;;;17.58;;
65936;SDS011;52707;52.086;5.418;2022-12-18T07:53:46;31.27;;;16.45;;
65936;SDS011;52707;52.086;5.418;2022-12-18T07:56:17;41.88;;;20.75;;
65936;SDS011;52707;52.086;5.418;2022-12-18T07:58:53;41.53;;;20.48;;
65936;SDS011;52707;52.086;5.418;2022-12-18T08:01:19;43.08;;;20.52;;
65936;SDS011;52707;52.086;5.418;2022-12-18T08:03:46;41.80;;;20.75;;
65936;SDS011;52707;52.086;5.418;2022-12-18T08:06:13;34.20;;;18.38;;
65936;SDS011;52707;52.086;5.418;2022-12-18T08:08:39;35.45;;;19.15;;
65936;SDS011;52707;52.086;5.418;2022-12-18T08:11:07;39.85;;;21.17;;
65936;SDS011;52707;52.086;5.418;2022-12-18T08:13:33;40.38;;;20.67;;
65936;SDS011;52707;52.086;5.418;2022-12-18T08:16:04;45.55;;;21.55;;
65936;SDS011;52707;52.086;5.418;2022-12-18T08:18:37;34.85;;;17.25;;
65936;SDS011;52707;52.086;5.418;2022-12-18T08:21:17;30.52;;;16.52;;
65936;SDS011;52707;52.086;5.418;2022-12-18T08:23:46;27.35;;;14.25;;
65936;SDS011;52707;52.086;5.418;2022-12-18T08:26:14;34.17;;;15.68;;
65936;SDS011;52707;52.086;5.418;2022-12-18T08:28:40;29.48;;;15.77;;
65936;SDS011;52707;52.086;5.418;2022-12-18T08:31:07;25.95;;;15.18;;
65936;SDS011;52707;52.086;5.418;2022-12-18T08:33:34;32.13;;;15.77;;
65936;SDS011;52707;52.086;5.418;2022-12-18T08:36:01;29.50;;;15.23;;
65936;SDS011;52707;52.086;5.418;2022-12-18T08:38:27;29.90;;;16.13;;
65936;SDS011;52707;52.086;5.418;2022-12-18T08:40:58;32.70;;;16.67;;
65936;SDS011;52707;52.086;5.418;2022-12-18T08:43:24;29.92;;;17.00;;
65936;SDS011;52707;52.086;5.418;2022-12-18T08:46:09;33.75;;;16.80;;
65936;SDS011;52707;52.086;5.418;2022-12-18T08:48:35;30.40;;;15.73;;
65936;SDS011;52707;52.086;5.418;2022-12-18T08:51:02;29.88;;;15.70;;
65936;SDS011;52707;52.086;5.418;2022-12-18T08:53:28;30.42;;;15.85;;
65936;SDS011;52707;52.086;5.418;2022-12-18T08:56:00;28.90;;;15.60;;
65936;SDS011;52707;52.086;5.418;2022-12-18T08:58:27;43.67;;;17.38;;
65936;SDS011;52707;52.086;5.418;2022-12-18T09:00:53;32.63;;;17.60;;
65936;SDS011;52707;52.086;5.418;2022-12-18T09:03:19;31.10;;;16.08;;
65936;SDS011;52707;52.086;5.418;2022-12-18T09:05:48;30.38;;;15.43;;
65936;SDS011;52707;52.086;5.418;2022-12-18T09:08:14;30.92;;;15.68;;
65936;SDS011;52707;52.086;5.418;2022-12-18T09:10:42;31.10;;;16.02;;
65936;SDS011;52707;52.086;5.418;2022-12-18T09:13:09;30.20;;;17.23;;
65936;SDS011;52707;52.086;5.418;2022-12-18T09:15:40;40.83;;;16.60;;
65936;SDS011;52707;52.086;5.418;2022-12-18T09:18:06;36.05;;;16.55;;
65936;SDS011;52707;52.086;5.418;2022-12-18T09:20:33;30.67;;;14.55;;
65936;SDS011;52707;52.086;5.418;2022-12-18T09:22:59;34.25;;;15.32;;
65936;SDS011;52707;52.086;5.418;2022-12-18T09:25:25;26.25;;;14.38;;
65936;SDS011;52707;52.086;5.418;2022-12-18T09:27:53;26.17;;;14.45;;
65936;SDS011;52707;52.086;5.418;2022-12-18T09:30:19;29.35;;;15.45;;
65936;SDS011;52707;52.086;5.418;2022-12-18T09:32:46;33.65;;;15.05;;
65936;SDS011;52707;52.086;5.418;2022-12-18T09:35:12;27.33;;;13.27;;
65936;SDS011;52707;52.086;5.418;2022-12-18T09:37:38;26.25;;;14.82;;
65936;SDS011;52707;52.086;5.418;2022-12-18T09:40:05;21.27;;;13.32;;
65936;SDS011;52707;52.086;5.418;2022-12-18T09:42:31;27.35;;;14.93;;
65936;SDS011;52707;52.086;5.418;2022-12-18T09:44:58;32.15;;;15.50;;
65936;SDS011;52707;52.086;5.418;2022-12-18T09:47:27;36.53;;;18.38;;
65936;SDS011;52707;52.086;5.418;2022-12-18T09:50:01;29.33;;;15.82;;
65936;SDS011;52707;52.086;5.418;2022-12-18T09:52:40;26.13;;;14.05;;
65936;SDS011;52707;52.086;5.418;2022-12-18T09:57:45;26.40;;;14.20;;
65936;SDS011;52707;52.086;5.418;2022-12-18T10:00:18;25.05;;;13.45;;
65936;SDS011;52707;52.086;5.418;2022-12-18T10:02:45;24.23;;;13.25;;
65936;SDS011;52707;52.086;5.418;2022-12-18T10:05:29;25.98;;;14.27;;
65936;SDS011;52707;52.086;5.418;2022-12-18T10:08:01;25.88;;;13.68;;
65936;SDS011;52707;52.086;5.418;2022-12-18T10:13:07;25.00;;;14.27;;
65936;SDS011;52707;52.086;5.418;2022-12-18T10:20:52;24.23;;;12.88;;
65936;SDS011;52707;52.086;5.418;2022-12-18T10:28:19;23.50;;;13.93;;
65936;SDS011;52707;52.086;5.418;2022-12-18T10:30:46;25.92;;;14.07;;
65936;SDS011;52707;52.086;5.418;2022-12-18T10:33:19;24.23;;;13.35;;
65936;SDS011;52707;52.086;5.418;2022-12-18T10:35:46;24.42;;;14.20;;
65936;SDS011;52707;52.086;5.418;2022-12-18T10:43:42;20.58;;;12.68;;
65936;SDS011;52707;52.086;5.418;2022-12-18T10:48:35;27.15;;;14.45;;
65936;SDS011;52707;52.086;5.418;2022-12-18T10:51:02;23.85;;;12.15;;
65936;SDS011;52707;52.086;5.418;2022-12-18T10:53:38;22.02;;;12.57;;
65936;SDS011;52707;52.086;5.418;2022-12-18T10:56:06;21.35;;;12.55;;
65936;SDS011;52707;52.086;5.418;2022-12-18T10:58:36;25.23;;;12.90;;
65936;SDS011;52707;52.086;5.418;2022-12-18T11:01:04;28.05;;;14.23;;
65936;SDS011;52707;52.086;5.418;2022-12-18T11:03:32;22.80;;;14.00;;
65936;SDS011;52707;52.086;5.418;2022-12-18T11:06:07;32.70;;;14.82;;
65936;SDS011;52707;52.086;5.418;2022-12-18T11:08:33;24.90;;;12.82;;
65936;SDS011;52707;52.086;5.418;2022-12-18T11:11:00;27.75;;;13.98;;
65936;SDS011;52707;52.086;5.418;2022-12-18T11:13:28;27.35;;;13.98;;
65936;SDS011;52707;52.086;5.418;2022-12-18T11:15:55;29.35;;;14.35;;
65936;SDS011;52707;52.086;5.418;2022-12-18T11:20:52;22.13;;;12.50;;
65936;SDS011;52707;52.086;5.418;2022-12-18T11:23:23;22.70;;;12.57;;
65936;SDS011;52707;52.086;5.418;2022-12-18T11:25:51;23.75;;;12.32;;
65936;SDS011;52707;52.086;5.418;2022-12-18T11:31:12;24.02;;;12.60;;
65936;SDS011;52707;52.086;5.418;2022-12-18T11:33:39;23.80;;;12.48;;
65936;SDS011;52707;52.086;5.418;2022-12-18T11:36:23;21.92;;;12.15;;
65936;SDS011;52707;52.086;5.418;2022-12-18T11:38:52;26.85;;;13.80;;
65936;SDS011;52707;52.086;5.418;2022-12-18T11:44:01;35.53;;;16.98;;
65936;SDS011;52707;52.086;5.418;2022-12-18T11:46:35;31.23;;;16.20;;
65936;SDS011;52707;52.086;5.418;2022-12-18T11:51:41;26.20;;;13.30;;
65936;SDS011;52707;52.086;5.418;2022-12-18T11:54:12;27.75;;;13.20;;
65936;SDS011;52707;52.086;5.418;2022-12-18T11:56:44;24.33;;;12.27;;
65936;SDS011;52707;52.086;5.418;2022-12-18T12:07:15;25.60;;;12.93;;
65936;SDS011;52707;52.086;5.418;2022-12-18T12:09:47;20.58;;;12.15;;
65936;SDS011;52707;52.086;5.418;2022-12-18T12:20:24;27.13;;;13.63;;
65936;SDS011;52707;52.086;5.418;2022-12-18T12:22:59;24.67;;;12.87;;
65936;SDS011;52707;52.086;5.418;2022-12-18T12:38:29;24.13;;;13.07;;
65936;SDS011;52707;52.086;5.418;2022-12-18T12:41:01;23.77;;;12.35;;
65936;SDS011;52707;52.086;5.418;2022-12-18T12:46:05;23.27;;;13.20;;
65936;SDS011;52707;52.086;5.418;2022-12-18T12:48:54;24.25;;;13.35;;
65936;SDS011;52707;52.086;5.418;2022-12-18T12:51:22;23.38;;;13.63;;
65936;SDS011;52707;52.086;5.418;2022-12-18T12:53:50;26.05;;;13.60;;
65936;SDS011;52707;52.086;5.418;2022-12-18T12:56:18;25.02;;;13.50;;
65936;SDS011;52707;52.086;5.418;2022-12-18T13:09:12;27.48;;;15.60;;
65936;SDS011;52707;52.086;5.418;2022-12-18T13:14:29;25.83;;;13.57;;
65936;SDS011;52707;52.086;5.418;2022-12-18T13:19:42;35.05;;;14.63;;
65936;SDS011;52707;52.086;5.418;2022-12-18T13:24:47;29.20;;;14.75;;
65936;SDS011;52707;52.086;5.418;2022-12-18T13:45:49;25.38;;;13.88;;
65936;SDS011;52707;52.086;5.418;2022-12-18T13:48:25;27.05;;;13.85;;
65936;SDS011;52707;52.086;5.418;2022-12-18T13:50:53;25.30;;;13.98;;
65936;SDS011;52707;52.086;5.418;2022-12-18T13:56:24;25.30;;;14.20;;
65936;SDS011;52707;52.086;5.418;2022-12-18T14:01:32;24.90;;;13.07;;
65936;SDS011;52707;52.086;5.418;2022-12-18T14:06:43;30.42;;;17.17;;
65936;SDS011;52707;52.086;5.418;2022-12-18T14:09:15;30.90;;;16.27;;
65936;SDS011;52707;52.086;5.418;2022-12-18T14:11:47;30.73;;;15.55;;
65936;SDS011;52707;52.086;5.418;2022-12-18T14:14:17;33.13;;;15.32;;
65936;SDS011;52707;52.086;5.418;2022-12-18T14:16:44;28.30;;;15.37;;
65936;SDS011;52707;52.086;5.418;2022-12-18T14:19:14;33.75;;;16.23;;
65936;SDS011;52707;52.086;5.418;2022-12-18T14:21:44;26.70;;;15.23;;
65936;SDS011;52707;52.086;5.418;2022-12-18T14:26:38;26.58;;;12.98;;
65936;SDS011;52707;52.086;5.418;2022-12-18T14:29:18;23.17;;;13.10;;
65936;SDS011;52707;52.086;5.418;2022-12-18T14:31:45;29.00;;;15.40;;
65936;SDS011;52707;52.086;5.418;2022-12-18T14:34:15;29.17;;;14.15;;
65936;SDS011;52707;52.086;5.418;2022-12-18T14:36:41;26.65;;;14.15;;
65936;SDS011;52707;52.086;5.418;2022-12-18T14:39:11;21.92;;;14.02;;
65936;SDS011;52707;52.086;5.418;2022-12-18T14:41:42;25.08;;;13.73;;
65936;SDS011;52707;52.086;5.418;2022-12-18T14:44:10;26.98;;;14.75;;
65936;SDS011;52707;52.086;5.418;2022-12-18T14:46:38;23.50;;;13.55;;
65936;SDS011;52707;52.086;5.418;2022-12-18T14:49:17;30.63;;;14.98;;
65936;SDS011;52707;52.086;5.418;2022-12-18T14:51:52;28.88;;;14.82;;
65936;SDS011;52707;52.086;5.418;2022-12-18T14:54:19;27.92;;;13.68;;
65936;SDS011;52707;52.086;5.418;2022-12-18T14:56:47;30.00;;;15.68;;
65936;SDS011;52707;52.086;5.418;2022-12-18T14:59:19;25.73;;;15.32;;
65936;SDS011;52707;52.086;5.418;2022-12-18T15:04:58;26.23;;;14.43;;
65936;SDS011;52707;52.086;5.418;2022-12-18T15:09:36;28.95;;;14.50;;
65936;SDS011;52707;52.086;5.418;2022-12-18T15:12:03;33.55;;;16.05;;
65936;SDS011;52707;52.086;5.418;2022-12-18T15:14:34;28.52;;;15.77;;
65936;SDS011;52707;52.086;5.418;2022-12-18T15:17:02;30.23;;;16.48;;
65936;SDS011;52707;52.086;5.418;2022-12-18T15:19:33;37.58;;;20.05;;
65936;SDS011;52707;52.086;5.418;2022-12-18T15:22:00;30.70;;;17.00;;
65936;SDS011;52707;52.086;5.418;2022-12-18T15:24:32;31.05;;;15.70;;
65936;SDS011;52707;52.086;5.418;2022-12-18T15:26:58;26.42;;;14.50;;
65936;SDS011;52707;52.086;5.418;2022-12-18T15:29:25;28.25;;;14.45;;
65936;SDS011;52707;52.086;5.418;2022-12-18T15:31:59;26.00;;;14.65;;
65936;SDS011;52707;52.086;5.418;2022-12-18T15:34:25;30.50;;;15.65;;
65936;SDS011;52707;52.086;5.418;2022-12-18T15:36:52;30.30;;;15.32;;
65936;SDS011;52707;52.086;5.418;2022-12-18T15:39:19;34.75;;;16.15;;
65936;SDS011;52707;52.086;5.418;2022-12-18T15:41:45;29.15;;;15.07;;
65936;SDS011;52707;52.086;5.418;2022-12-18T15:44:30;35.58;;;16.85;;
65936;SDS011;52707;52.086;5.418;2022-12-18T15:46:57;28.08;;;14.55;;
65936;SDS011;52707;52.086;5.418;2022-12-18T15:49:24;27.08;;;13.48;;
65936;SDS011;52707;52.086;5.418;2022-12-18T15:51:53;25.60;;;13.68;;
65936;SDS011;52707;52.086;5.418;2022-12-18T15:54:20;39.55;;;19.92;;
65936;SDS011;52707;52.086;5.418;2022-12-18T15:57:08;37.28;;;19.70;;
65936;SDS011;52707;52.086;5.418;2022-12-18T15:59:50;29.27;;;16.00;;
65936;SDS011;52707;52.086;5.418;2022-12-18T16:02:19;31.40;;;16.70;;
65936;SDS011;52707;52.086;5.418;2022-12-18T16:04:45;32.83;;;16.20;;
65936;SDS011;52707;52.086;5.418;2022-12-18T16:07:12;33.08;;;17.20;;
65936;SDS011;52707;52.086;5.418;2022-12-18T16:09:43;37.47;;;19.73;;
65936;SDS011;52707;52.086;5.418;2022-12-18T16:12:14;35.17;;;17.70;;
65936;SDS011;52707;52.086;5.418;2022-12-18T16:14:41;37.60;;;17.35;;
65936;SDS011;52707;52.086;5.418;2022-12-18T16:17:09;31.48;;;15.80;;
65936;SDS011;52707;52.086;5.418;2022-12-18T16:19:36;35.55;;;16.45;;
65936;SDS011;52707;52.086;5.418;2022-12-18T16:22:02;32.25;;;16.75;;
65936;SDS011;52707;52.086;5.418;2022-12-18T16:24:30;35.40;;;17.27;;
65936;SDS011;52707;52.086;5.418;2022-12-18T16:26:57;34.63;;;15.85;;
65936;SDS011;52707;52.086;5.418;2022-12-18T16:29:25;26.95;;;14.50;;
65936;SDS011;52707;52.086;5.418;2022-12-18T16:31:54;31.23;;;15.70;;
65936;SDS011;52707;52.086;5.418;2022-12-18T16:34:21;27.88;;;16.27;;
65936;SDS011;52707;52.086;5.418;2022-12-18T16:36:52;33.03;;;16.60;;
65936;SDS011;52707;52.086;5.418;2022-12-18T16:39:19;31.23;;;16.33;;
65936;SDS011;52707;52.086;5.418;2022-12-18T16:41:46;35.58;;;16.73;;
65936;SDS011;52707;52.086;5.418;2022-12-18T16:44:12;29.13;;;15.65;;
65936;SDS011;52707;52.086;5.418;2022-12-18T16:46:38;33.60;;;17.25;;
65936;SDS011;52707;52.086;5.418;2022-12-18T16:49:05;33.55;;;17.08;;
65936;SDS011;52707;52.086;5.418;2022-12-18T16:51:34;36.70;;;16.58;;
65936;SDS011;52707;52.086;5.418;2022-12-18T16:54:00;34.47;;;17.45;;
65936;SDS011;52707;52.086;5.418;2022-12-18T16:56:33;29.20;;;16.77;;
65936;SDS011;52707;52.086;5.418;2022-12-18T16:59:00;29.60;;;16.77;;
65936;SDS011;52707;52.086;5.418;2022-12-18T17:01:27;31.63;;;16.65;;